Time;durP1;ratioP1;P1;durP2;ratioP2;P2;SDS_P1;SDS_P2;PMS_P1;PMS_P2;Temp;Humidity;BMP_temperature;BMP_pressure;BME280_temperature;BME280_humidity;BME280_pressure;Samples;Min_cycle;Max_cycle;Signal;HPM_P1;HPM_P2
2021/11/27 00:01:07;;;;;;;4.53;4.13;;;;;;;;;;5074546;28;20235;-84
2021/11/27 00:03:37;;;;;;;4.35;3.83;;;;;;;;;;5074782;28;20189;-83
2021/11/27 00:06:08;;;;;;;4.95;4.38;;;;;;;;;;5074241;28;20250;-83
2021/11/27 00:08:37;;;;;;;5.40;3.90;;;;;;;;;;5074299;28;20193;-84
2021/11/27 00:11:06;;;;;;;4.07;3.70;;;;;;;;;;5073863;28;20230;-85
2021/11/27 00:13:34;;;;;;;3.97;3.67;;;;;;;;;;5074240;28;20221;-84
2021/11/27 00:16:02;;;;;;;4.07;3.63;;;;;;;;;;5073965;28;20212;-85
2021/11/27 00:18:30;;;;;;;4.10;3.67;;;;;;;;;;5074295;28;20256;-83
2021/11/27 00:21:02;;;;;;;3.75;3.45;;;;;;;;;;5074552;28;20209;-83
2021/11/27 00:23:34;;;;;;;3.65;3.35;;;;;;;;;;5074394;28;20185;-83
2021/11/27 00:26:04;;;;;;;4.07;3.78;;;;;;;;;;5074652;28;20539;-85
2021/11/27 00:28:32;;;;;;;4.40;3.95;;;;;;;;;;5073736;28;20228;-85
2021/11/27 00:31:09;;;;;;;3.72;3.38;;;;;;;;;;5074715;28;20186;-85
2021/11/27 00:33:40;;;;;;;3.70;3.40;;;;;;;;;;5087182;28;20212;-84
2021/11/27 00:36:10;;;;;;;3.58;3.25;;;;;;;;;;5094500;28;20641;-84
2021/11/27 00:38:42;;;;;;;4.13;3.83;;;;;;;;;;5094345;28;20197;-83
2021/11/27 00:41:21;;;;;;;4.13;3.72;;;;;;;;;;5094029;28;20232;-83
2021/11/27 00:43:50;;;;;;;4.22;3.67;;;;;;;;;;5094433;28;20227;-84
2021/11/27 00:46:18;;;;;;;3.90;3.55;;;;;;;;;;5094234;28;20307;-84
2021/11/27 00:48:47;;;;;;;3.50;3.20;;;;;;;;;;5094702;28;20192;-84
2021/11/27 00:51:19;;;;;;;3.95;3.58;;;;;;;;;;5094317;28;20207;-84
2021/11/27 00:53:48;;;;;;;3.95;3.65;;;;;;;;;;5094508;28;20220;-84
2021/11/27 00:56:16;;;;;;;3.33;3.00;;;;;;;;;;5094134;28;20307;-83
2021/11/27 00:58:45;;;;;;;4.05;3.75;;;;;;;;;;5093289;28;20311;-83
2021/11/27 01:01:24;;;;;;;4.13;3.50;;;;;;;;;;5094395;28;20630;-84
2021/11/27 01:03:53;;;;;;;3.88;3.53;;;;;;;;;;5093682;28;20673;-84
2021/11/27 01:06:24;;;;;;;4.32;3.92;;;;;;;;;;5094515;28;20748;-85
2021/11/27 01:09:05;;;;;;;3.78;3.30;;;;;;;;;;5094151;28;20223;-83
2021/11/27 01:11:36;;;;;;;3.50;3.20;;;;;;;;;;5085905;28;20282;-84
2021/11/27 01:14:09;;;;;;;3.40;3.10;;;;;;;;;;5074220;28;20660;-84
2021/11/27 01:16:39;;;;;;;3.17;2.88;;;;;;;;;;5075086;28;20248;-82
2021/11/27 01:19:17;;;;;;;3.50;3.15;;;;;;;;;;5088212;28;20205;-83
2021/11/27 01:21:49;;;;;;;3.72;3.28;;;;;;;;;;5094396;28;20215;-83
2021/11/27 01:24:20;;;;;;;3.45;3.15;;;;;;;;;;5093942;28;20220;-84
2021/11/27 01:26:48;;;;;;;3.63;2.90;;;;;;;;;;5094277;28;20255;-83
2021/11/27 01:29:16;;;;;;;3.55;3.25;;;;;;;;;;5094019;28;20191;-84
2021/11/27 01:31:44;;;;;;;3.25;2.95;;;;;;;;;;5093908;28;20268;-84
2021/11/27 01:34:11;;;;;;;3.92;2.80;;;;;;;;;;5093721;28;20228;-83
2021/11/27 01:36:39;;;;;;;3.28;2.97;;;;;;;;;;5082187;28;20240;-84
2021/11/27 01:39:08;;;;;;;2.65;2.45;;;;;;;;;;5073575;28;20248;-84
2021/11/27 01:41:44;;;;;;;3.22;2.95;;;;;;;;;;5073493;28;20607;-85
2021/11/27 01:44:12;;;;;;;2.85;2.65;;;;;;;;;;5073523;28;20216;-84
2021/11/27 01:46:40;;;;;;;2.78;2.58;;;;;;;;;;5082635;28;20247;-84
2021/11/27 01:49:10;;;;;;;2.97;2.75;;;;;;;;;;5093567;28;20650;-84
2021/11/27 01:51:39;;;;;;;3.00;2.75;;;;;;;;;;5094027;28;20623;-83
2021/11/27 01:54:13;;;;;;;2.42;2.22;;;;;;;;;;5097450;28;20184;-84
2021/11/27 01:56:54;;;;;;;2.85;2.33;;;;;;;;;;5097018;28;20296;-84
2021/11/27 01:59:25;;;;;;;3.00;2.75;;;;;;;;;;5097113;28;20693;-85
2021/11/27 02:02:03;;;;;;;2.40;2.17;;;;;;;;;;5096921;28;20264;-85
2021/11/27 02:04:32;;;;;;;2.92;2.67;;;;;;;;;;5097338;28;20216;-84
2021/11/27 02:07:01;;;;;;;2.60;2.40;;;;;;;;;;5096991;28;20658;-84
2021/11/27 02:09:31;;;;;;;2.60;2.40;;;;;;;;;;5096358;28;20283;-84
2021/11/27 02:12:03;;;;;;;2.65;2.45;;;;;;;;;;5096829;28;20250;-84
2021/11/27 02:14:32;;;;;;;2.03;1.92;;;;;;;;;;5096819;28;20200;-84
2021/11/27 02:17:02;;;;;;;2.58;2.42;;;;;;;;;;5095918;28;20275;-83
2021/11/27 02:19:31;;;;;;;2.22;1.98;;;;;;;;;;5076473;28;20252;-85
2021/11/27 02:22:01;;;;;;;2.28;2.08;;;;;;;;;;5076777;28;20637;-84
2021/11/27 02:24:31;;;;;;;2.45;2.25;;;;;;;;;;5076154;28;20264;-83
2021/11/27 02:26:58;;;;;;;3.05;2.78;;;;;;;;;;5082953;28;20208;-84
2021/11/27 02:29:30;;;;;;;2.30;2.08;;;;;;;;;;5096723;28;20205;-85
2021/11/27 02:31:59;;;;;;;2.50;2.30;;;;;;;;;;5096420;28;20315;-84
2021/11/27 02:34:28;;;;;;;3.13;2.58;;;;;;;;;;5096458;28;20227;-84
2021/11/27 02:37:07;;;;;;;3.05;2.58;;;;;;;;;;5083050;28;20256;-84
2021/11/27 02:39:46;;;;;;;2.92;2.65;;;;;;;;;;5076148;28;20738;-84
2021/11/27 02:42:20;;;;;;;2.72;2.53;;;;;;;;;;5076488;28;20607;-85
2021/11/27 02:44:49;;;;;;;2.63;2.42;;;;;;;;;;5076553;28;20224;-85
2021/11/27 02:47:16;;;;;;;2.45;2.25;;;;;;;;;;5092668;28;20234;-84
2021/11/27 02:49:44;;;;;;;2.50;2.30;;;;;;;;;;5096554;28;20216;-84
2021/11/27 02:52:21;;;;;;;2.55;2.35;;;;;;;;;;5096096;28;20200;-85
2021/11/27 02:54:50;;;;;;;2.40;2.20;;;;;;;;;;5096215;28;20184;-83
2021/11/27 02:57:19;;;;;;;2.10;1.90;;;;;;;;;;5096006;28;20321;-83
2021/11/27 02:59:49;;;;;;;3.25;2.95;;;;;;;;;;5096002;28;20694;-83
2021/11/27 03:02:18;;;;;;;2.50;2.30;;;;;;;;;;5096457;28;20624;-84
2021/11/27 03:04:49;;;;;;;2.78;2.58;;;;;;;;;;5096525;28;20272;-85
2021/11/27 03:07:19;;;;;;;2.83;2.63;;;;;;;;;;5093757;28;20579;-84
2021/11/27 03:09:48;;;;;;;2.65;2.45;;;;;;;;;;5096340;28;20216;-84
2021/11/27 03:12:16;;;;;;;3.10;2.85;;;;;;;;;;5096732;28;20205;-83
2021/11/27 03:14:44;;;;;;;2.30;2.20;;;;;;;;;;5096179;28;20583;-84
2021/11/27 03:17:12;;;;;;;2.63;2.42;;;;;;;;;;5095782;28;20256;-84
2021/11/27 03:19:44;;;;;;;2.67;2.47;;;;;;;;;;5096004;28;20204;-84
2021/11/27 03:22:15;;;;;;;2.85;2.65;;;;;;;;;;5095743;28;20292;-84
2021/11/27 03:24:46;;;;;;;2.67;2.47;;;;;;;;;;5080695;28;20189;-84
2021/11/27 03:27:15;;;;;;;2.20;2.00;;;;;;;;;;5075077;28;20249;-83
2021/11/27 03:29:44;;;;;;;1.95;1.83;;;;;;;;;;5075588;28;20216;-84
2021/11/27 03:32:15;;;;;;;2.38;2.17;;;;;;;;;;5074649;28;20252;-84
2021/11/27 03:34:44;;;;;;;2.55;2.35;;;;;;;;;;5088941;28;20746;-85
2021/11/27 03:37:12;;;;;;;2.42;2.20;;;;;;;;;;5094864;28;20251;-84
2021/11/27 03:39:41;;;;;;;2.67;2.47;;;;;;;;;;5095185;28;20299;-85
2021/11/27 03:42:18;;;;;;;3.17;2.88;;;;;;;;;;5095267;28;20228;-83
2021/11/27 03:44:49;;;;;;;2.03;1.83;;;;;;;;;;5080316;28;20648;-83
2021/11/27 03:47:18;;;;;;;2.20;2.10;;;;;;;;;;5075056;28;20294;-84
2021/11/27 03:49:46;;;;;;;2.00;1.90;;;;;;;;;;5075055;28;20284;-83
2021/11/27 03:52:15;;;;;;;2.40;2.28;;;;;;;;;;5074737;28;20232;-84
2021/11/27 03:54:42;;;;;;;2.25;2.15;;;;;;;;;;5075319;28;20280;-84
2021/11/27 03:57:10;;;;;;;1.95;1.85;;;;;;;;;;5074557;28;20259;-83
2021/11/27 03:59:40;;;;;;;2.42;2.22;;;;;;;;;;5075094;28;20334;-85
2021/11/27 04:02:08;;;;;;;2.38;2.17;;;;;;;;;;5075583;28;20678;-85
2021/11/27 04:04:38;;;;;;;2.03;1.90;;;;;;;;;;5088226;28;20220;-85
2021/11/27 04:07:07;;;;;;;2.28;2.17;;;;;;;;;;5095301;28;20630;-85
2021/11/27 04:09:34;;;;;;;2.30;2.20;;;;;;;;;;5095611;28;20189;-86
2021/11/27 04:12:03;;;;;;;2.80;2.60;;;;;;;;;;5095605;28;20220;-85
2021/11/27 04:14:31;;;;;;;2.38;2.28;;;;;;;;;;5084147;28;20667;-85
2021/11/27 04:17:00;;;;;;;2.20;2.05;;;;;;;;;;5075045;28;20264;-85
2021/11/27 04:19:27;;;;;;;2.58;2.38;;;;;;;;;;5074681;28;20224;-85
2021/11/27 04:21:55;;;;;;;2.42;2.33;;;;;;;;;;5075655;28;20220;-85
2021/11/27 04:24:22;;;;;;;2.78;2.58;;;;;;;;;;5074603;28;20232;-84
2021/11/27 04:26:50;;;;;;;2.75;2.55;;;;;;;;;;5074751;28;20263;-84
2021/11/27 04:29:18;;;;;;;2.10;2.00;;;;;;;;;;5075330;28;20213;-86
2021/11/27 04:31:47;;;;;;;2.90;2.70;;;;;;;;;;5074233;28;20269;-84
2021/11/27 04:34:16;;;;;;;2.97;2.78;;;;;;;;;;5075001;28;20261;-84
2021/11/27 04:36:45;;;;;;;2.80;2.60;;;;;;;;;;5074536;28;20225;-84
2021/11/27 04:39:13;;;;;;;2.20;2.00;;;;;;;;;;5074698;28;20216;-84
2021/11/27 04:41:40;;;;;;;2.78;2.17;;;;;;;;;;5074293;28;20303;-84
2021/11/27 04:44:08;;;;;;;4.05;2.85;;;;;;;;;;5074467;28;20233;-84
2021/11/27 04:46:36;;;;;;;3.08;2.85;;;;;;;;;;5074436;28;20257;-84
2021/11/27 04:49:04;;;;;;;2.88;2.60;;;;;;;;;;5074588;28;20292;-84
2021/11/27 04:51:33;;;;;;;2.38;2.17;;;;;;;;;;5073974;28;20217;-84
2021/11/27 04:54:01;;;;;;;2.10;1.90;;;;;;;;;;5074095;28;20216;-84
2021/11/27 04:56:28;;;;;;;2.60;2.40;;;;;;;;;;5074145;28;20252;-84
2021/11/27 04:58:56;;;;;;;2.28;2.13;;;;;;;;;;5073792;28;20617;-84
2021/11/27 05:01:25;;;;;;;2.75;2.55;;;;;;;;;;5074184;28;20297;-84
2021/11/27 05:03:54;;;;;;;2.72;2.53;;;;;;;;;;5073925;28;20181;-83
2021/11/27 05:06:22;;;;;;;3.38;3.10;;;;;;;;;;5074050;28;20220;-84
2021/11/27 05:08:51;;;;;;;2.55;2.35;;;;;;;;;;5073702;28;20192;-84
2021/11/27 05:11:19;;;;;;;2.88;2.67;;;;;;;;;;5074271;28;20212;-85
2021/11/27 05:13:47;;;;;;;3.30;3.05;;;;;;;;;;5074047;28;20216;-85
2021/11/27 05:16:14;;;;;;;2.58;2.38;;;;;;;;;;5073545;28;20252;-84
2021/11/27 05:18:43;;;;;;;2.75;2.55;;;;;;;;;;5074054;28;20291;-84
2021/11/27 05:21:11;;;;;;;3.10;2.90;;;;;;;;;;5073241;28;20232;-83
2021/11/27 05:23:39;;;;;;;2.45;2.25;;;;;;;;;;5073766;28;20697;-85
2021/11/27 05:26:08;;;;;;;3.05;2.75;;;;;;;;;;5073386;28;20221;-84
2021/11/27 05:28:36;;;;;;;1.95;1.85;;;;;;;;;;5077892;28;20221;-84
2021/11/27 05:31:04;;;;;;;2.80;2.65;;;;;;;;;;5077408;28;20229;-84
2021/11/27 05:33:47;;;;;;;2.10;2.00;;;;;;;;;;5077091;28;20757;-84
2021/11/27 05:36:16;;;;;;;3.78;2.35;;;;;;;;;;5077675;28;20221;-84
2021/11/27 05:38:44;;;;;;;2.50;2.30;;;;;;;;;;5078238;28;20212;-84
2021/11/27 05:41:15;;;;;;;2.92;2.72;;;;;;;;;;5077564;28;20647;-85
2021/11/27 05:43:43;;;;;;;3.10;2.80;;;;;;;;;;5077189;28;20588;-85
2021/11/27 05:46:11;;;;;;;2.38;2.28;;;;;;;;;;5076923;28;20259;-85
2021/11/27 05:48:39;;;;;;;2.67;2.47;;;;;;;;;;5077076;28;20228;-86
2021/11/27 05:51:07;;;;;;;2.22;2.13;;;;;;;;;;5076139;28;20228;-86
2021/11/27 05:53:35;;;;;;;2.42;2.22;;;;;;;;;;5076243;28;20237;-86
2021/11/27 05:56:03;;;;;;;2.58;2.38;;;;;;;;;;5076613;28;20220;-86
2021/11/27 05:58:32;;;;;;;2.03;1.92;;;;;;;;;;5076474;28;20656;-86
2021/11/27 06:01:05;;;;;;;2.53;2.33;;;;;;;;;;5076581;28;20245;-87
2021/11/27 06:03:34;;;;;;;3.33;3.00;;;;;;;;;;5076536;28;20264;-86
2021/11/27 06:06:02;;;;;;;2.35;2.22;;;;;;;;;;5076400;28;20616;-85
2021/11/27 06:08:30;;;;;;;2.67;2.47;;;;;;;;;;5076603;28;20177;-87
2021/11/27 06:10:59;;;;;;;2.40;2.30;;;;;;;;;;5076501;28;20192;-86
2021/11/27 06:13:28;;;;;;;2.30;2.10;;;;;;;;;;5076376;28;20221;-86
2021/11/27 06:15:58;;;;;;;3.25;2.95;;;;;;;;;;5076519;28;20220;-86
2021/11/27 06:18:25;;;;;;;2.63;2.42;;;;;;;;;;5076394;28;20232;-86
2021/11/27 06:20:53;;;;;;;3.03;2.83;;;;;;;;;;5076184;28;20298;-85
2021/11/27 06:23:23;;;;;;;3.05;2.85;;;;;;;;;;5076174;28;20213;-85
2021/11/27 06:25:51;;;;;;;2.58;2.38;;;;;;;;;;5076081;28;20243;-86
2021/11/27 06:28:19;;;;;;;2.67;2.45;;;;;;;;;;5076086;28;20190;-87
2021/11/27 06:30:46;;;;;;;2.15;2.05;;;;;;;;;;5075399;28;20228;-87
2021/11/27 06:33:24;;;;;;;2.20;2.10;;;;;;;;;;5075007;28;20350;-86
2021/11/27 06:35:54;;;;;;;2.78;2.58;;;;;;;;;;5075799;28;20631;-87
2021/11/27 06:38:21;;;;;;;2.72;2.53;;;;;;;;;;5074337;28;20258;-86
2021/11/27 06:40:50;;;;;;;3.92;3.08;;;;;;;;;;5075463;28;20223;-86
2021/11/27 06:43:18;;;;;;;2.83;2.60;;;;;;;;;;5075698;28;20221;-87
2021/11/27 06:45:48;;;;;;;2.83;2.63;;;;;;;;;;5075018;28;20682;-86
2021/11/27 06:48:16;;;;;;;2.13;2.03;;;;;;;;;;5074907;28;20213;-84
2021/11/27 06:50:46;;;;;;;2.58;2.38;;;;;;;;;;5074982;28;20228;-87
2021/11/27 06:53:14;;;;;;;2.33;2.22;;;;;;;;;;5075544;28;20189;-86
2021/11/27 06:55:42;;;;;;;2.28;2.17;;;;;;;;;;5075384;28;20224;-86
2021/11/27 06:58:10;;;;;;;2.15;2.00;;;;;;;;;;5074480;28;20251;-87
2021/11/27 07:00:38;;;;;;;2.15;2.05;;;;;;;;;;5075202;28;20181;-87
2021/11/27 07:03:08;;;;;;;2.65;2.45;;;;;;;;;;5074853;28;20293;-87
2021/11/27 07:05:37;;;;;;;1.90;1.80;;;;;;;;;;5075292;28;20735;-87
2021/11/27 07:08:08;;;;;;;1.85;1.75;;;;;;;;;;5074651;28;20252;-87
2021/11/27 07:10:39;;;;;;;1.90;1.63;;;;;;;;;;5074839;28;20185;-86
2021/11/27 07:13:08;;;;;;;1.98;1.88;;;;;;;;;;5074463;28;20220;-87
2021/11/27 07:15:36;;;;;;;2.00;1.90;;;;;;;;;;5074860;28;20235;-87
2021/11/27 07:18:04;;;;;;;2.50;2.30;;;;;;;;;;5075442;28;20253;-86
2021/11/27 07:20:38;;;;;;;2.75;2.20;;;;;;;;;;5074673;28;20259;-89
2021/11/27 07:23:09;;;;;;;2.00;1.80;;;;;;;;;;5073878;28;20248;-86
2021/11/27 07:25:38;;;;;;;2.22;2.10;;;;;;;;;;5074769;28;20185;-88
2021/11/27 07:28:09;;;;;;;1.60;1.55;;;;;;;;;;5074603;28;20239;-86
2021/11/27 07:30:39;;;;;;;1.30;1.25;;;;;;;;;;5074958;28;20699;-86
2021/11/27 07:33:13;;;;;;;2.72;2.53;;;;;;;;;;5074443;28;20376;-89
2021/11/27 07:35:50;;;;;;;1.95;1.85;;;;;;;;;;5074519;28;20220;-87
2021/11/27 07:38:19;;;;;;;2.17;2.08;;;;;;;;;;5074492;28;20273;-86
2021/11/27 07:40:47;;;;;;;2.08;1.98;;;;;;;;;;5075536;28;20738;-84
2021/11/27 07:43:16;;;;;;;2.13;2.03;;;;;;;;;;5075193;28;20237;-86
2021/11/27 07:45:44;;;;;;;2.40;2.20;;;;;;;;;;5074802;28;20209;-88
2021/11/27 07:48:13;;;;;;;2.28;2.00;;;;;;;;;;5074494;28;20699;-85
2021/11/27 07:50:41;;;;;;;1.80;1.70;;;;;;;;;;5074095;28;20227;-85
2021/11/27 07:53:08;;;;;;;1.90;1.80;;;;;;;;;;5074447;28;20634;-86
2021/11/27 07:55:39;;;;;;;1.58;1.48;;;;;;;;;;5075826;28;20219;-84
2021/11/27 07:58:06;;;;;;;2.20;2.10;;;;;;;;;;5096796;28;20574;-84
2021/11/27 08:00:34;;;;;;;1.50;1.40;;;;;;;;;;5115525;28;20203;-85
2021/11/27 08:03:01;;;;;;;1.63;1.52;;;;;;;;;;5115798;28;20296;-85
2021/11/27 08:05:29;;;;;;;1.73;1.63;;;;;;;;;;5116433;28;20192;-86
2021/11/27 08:07:57;;;;;;;1.88;1.77;;;;;;;;;;5117070;28;20215;-86
2021/11/27 08:10:25;;;;;;;2.28;2.17;;;;;;;;;;5116901;28;20235;-85
2021/11/27 08:12:54;;;;;;;2.42;2.22;;;;;;;;;;5115494;28;20230;-85
2021/11/27 08:15:22;;;;;;;1.90;1.80;;;;;;;;;;5098980;28;20199;-86
2021/11/27 08:17:51;;;;;;;1.80;1.70;;;;;;;;;;5095914;28;20258;-86
2021/11/27 08:20:18;;;;;;;1.75;1.65;;;;;;;;;;5092338;28;20239;-85
2021/11/27 08:22:47;;;;;;;1.80;1.70;;;;;;;;;;5075684;28;20671;-84
2021/11/27 08:25:15;;;;;;;1.63;1.52;;;;;;;;;;5075879;28;20182;-85
2021/11/27 08:27:43;;;;;;;1.88;1.77;;;;;;;;;;5075243;28;20229;-85
2021/11/27 08:30:13;;;;;;;1.80;1.70;;;;;;;;;;5075492;28;20239;-86
2021/11/27 08:32:42;;;;;;;1.58;1.48;;;;;;;;;;5074274;28;20274;-85
2021/11/27 08:35:10;;;;;;;1.73;1.63;;;;;;;;;;5073669;28;20239;-83
2021/11/27 08:37:38;;;;;;;1.38;1.27;;;;;;;;;;5076903;28;20244;-83
2021/11/27 08:40:08;;;;;;;1.63;1.52;;;;;;;;;;5080620;28;20235;-84
2021/11/27 08:42:36;;;;;;;1.40;1.40;;;;;;;;;;5074052;28;20296;-84
2021/11/27 08:45:05;;;;;;;1.50;1.40;;;;;;;;;;5078686;28;20180;-83
2021/11/27 08:47:34;;;;;;;1.17;1.17;;;;;;;;;;5093190;28;20737;-84
2021/11/27 08:50:02;;;;;;;1.63;1.50;;;;;;;;;;5091703;28;20220;-85
2021/11/27 08:52:30;;;;;;;1.00;0.98;;;;;;;;;;5093644;28;20629;-84
2021/11/27 08:54:58;;;;;;;1.00;1.00;;;;;;;;;;5093781;28;20208;-84
2021/11/27 08:57:25;;;;;;;1.55;1.45;;;;;;;;;;5074047;28;20271;-82
2021/11/27 08:59:53;;;;;;;1.33;1.23;;;;;;;;;;5073916;28;20212;-81
2021/11/27 09:02:21;;;;;;;1.42;1.40;;;;;;;;;;5081694;28;20737;-83
2021/11/27 09:04:50;;;;;;;1.33;1.30;;;;;;;;;;5094959;28;20212;-82
2021/11/27 09:07:19;;;;;;;1.55;1.45;;;;;;;;;;5078273;28;20801;-83
2021/11/27 09:09:47;;;;;;;1.48;1.38;;;;;;;;;;5083325;28;20234;-83
2021/11/27 09:12:18;;;;;;;1.25;1.25;;;;;;;;;;5098837;28;20219;-82
2021/11/27 09:14:47;;;;;;;1.00;1.00;;;;;;;;;;5098935;28;20552;-83
2021/11/27 09:17:14;;;;;;;1.00;1.00;;;;;;;;;;5098637;28;20251;-83
2021/11/27 09:19:42;;;;;;;1.20;1.20;;;;;;;;;;5099211;28;20224;-84
2021/11/27 09:22:11;;;;;;;1.10;1.10;;;;;;;;;;5099286;28;20220;-84
2021/11/27 09:24:39;;;;;;;1.10;1.10;;;;;;;;;;5099351;28;20197;-84
2021/11/27 09:27:07;;;;;;;1.42;1.33;;;;;;;;;;5097054;28;20255;-84
2021/11/27 09:29:35;;;;;;;1.33;1.23;;;;;;;;;;5078244;28;20212;-84
2021/11/27 09:32:03;;;;;;;0.93;0.93;;;;;;;;;;5078510;28;20699;-84
2021/11/27 09:34:31;;;;;;;1.05;1.05;;;;;;;;;;5078040;28;20819;-84
2021/11/27 09:37:00;;;;;;;1.38;1.35;;;;;;;;;;5093359;28;20660;-83
2021/11/27 09:39:30;;;;;;;1.52;1.42;;;;;;;;;;5097748;28;20626;-83
2021/11/27 09:41:59;;;;;;;1.55;1.45;;;;;;;;;;5093708;28;20192;-84
2021/11/27 09:44:31;;;;;;;1.27;1.20;;;;;;;;;;5087027;28;20217;-83
2021/11/27 09:46:59;;;;;;;1.10;1.10;;;;;;;;;;5082784;28;20222;-83
2021/11/27 09:49:27;;;;;;;1.33;1.30;;;;;;;;;;5096759;28;20205;-82
2021/11/27 09:51:55;;;;;;;1.83;1.73;;;;;;;;;;5093435;28;20185;-82
2021/11/27 09:54:25;;;;;;;1.42;1.30;;;;;;;;;;5090524;28;20621;-84
2021/11/27 09:56:55;;;;;;;1.50;1.40;;;;;;;;;;5096332;28;20596;-84
2021/11/27 09:59:23;;;;;;;1.67;1.58;;;;;;;;;;5095572;28;20826;-83
2021/11/27 10:01:53;;;;;;;1.65;1.55;;;;;;;;;;5096953;28;20185;-83
2021/11/27 10:04:23;;;;;;;1.70;1.60;;;;;;;;;;5096698;28;20239;-84
2021/11/27 10:06:51;;;;;;;1.98;1.88;;;;;;;;;;5096785;28;20273;-84
2021/11/27 10:09:22;;;;;;;2.28;1.52;;;;;;;;;;5095366;28;20188;-84
2021/11/27 10:11:51;;;;;;;1.60;1.50;;;;;;;;;;5093997;28;20200;-84
2021/11/27 10:14:21;;;;;;;2.53;2.22;;;;;;;;;;5081448;28;20292;-83
2021/11/27 10:17:10;;;;;;;1.60;1.50;;;;;;;;;;5076279;28;20261;-83
2021/11/27 10:19:53;;;;;;;1.50;1.40;;;;;;;;;;5076325;28;20570;-83
2021/11/27 10:22:25;;;;;;;1.10;1.10;;;;;;;;;;5076151;28;20590;-83
2021/11/27 10:24:53;;;;;;;1.15;1.15;;;;;;;;;;5075598;28;20221;-83
2021/11/27 10:27:25;;;;;;;1.60;1.52;;;;;;;;;;5076210;28;20216;-83
2021/11/27 10:30:05;;;;;;;1.98;1.88;;;;;;;;;;5076051;28;20659;-83
2021/11/27 10:32:38;;;;;;;2.08;1.98;;;;;;;;;;5075633;28;20231;-83
2021/11/27 10:35:09;;;;;;;2.05;1.92;;;;;;;;;;5075931;28;20284;-83
2021/11/27 10:37:41;;;;;;;1.80;1.70;;;;;;;;;;5089057;28;20254;-82
2021/11/27 10:40:12;;;;;;;2.72;2.35;;;;;;;;;;5095839;28;20261;-83
2021/11/27 10:42:46;;;;;;;2.22;2.03;;;;;;;;;;5096366;28;20216;-83
2021/11/27 10:45:19;;;;;;;2.10;1.90;;;;;;;;;;5079957;28;20244;-83
2021/11/27 10:47:47;;;;;;;1.42;1.33;;;;;;;;;;5095953;28;20250;-83
2021/11/27 10:50:19;;;;;;;1.55;1.45;;;;;;;;;;5076887;28;20617;-83
2021/11/27 10:52:48;;;;;;;1.55;1.45;;;;;;;;;;5077263;28;20193;-82
2021/11/27 10:55:22;;;;;;;1.25;1.25;;;;;;;;;;5077243;28;20231;-83
2021/11/27 10:57:55;;;;;;;1.15;1.05;;;;;;;;;;5095497;28;20640;-82
2021/11/27 11:00:34;;;;;;;0.77;0.77;;;;;;;;;;5089297;28;20201;-82
2021/11/27 11:03:06;;;;;;;0.80;0.80;;;;;;;;;;5083198;28;20251;-83
2021/11/27 11:05:36;;;;;;;1.25;1.25;;;;;;;;;;5088596;28;20618;-82
2021/11/27 11:08:06;;;;;;;1.10;1.10;;;;;;;;;;5080668;28;20213;-83
2021/11/27 11:10:36;;;;;;;1.45;1.40;;;;;;;;;;5089881;28;20213;-82
2021/11/27 11:13:07;;;;;;;1.17;1.17;;;;;;;;;;5080405;28;20280;-81
2021/11/27 11:15:38;;;;;;;1.23;1.23;;;;;;;;;;5075788;28;20272;-84
2021/11/27 11:18:16;;;;;;;1.10;1.10;;;;;;;;;;5082892;28;20303;-83
2021/11/27 11:20:48;;;;;;;1.25;1.15;;;;;;;;;;5095013;28;20188;-82
2021/11/27 11:23:22;;;;;;;1.05;1.05;;;;;;;;;;5093890;28;20216;-82
2021/11/27 11:26:07;;;;;;;1.10;1.10;;;;;;;;;;5094177;28;20703;-83
2021/11/27 11:28:39;;;;;;;1.80;1.70;;;;;;;;;;5093903;28;20231;-83
2021/11/27 11:31:11;;;;;;;1.60;1.50;;;;;;;;;;5092366;22;20606;-86
2021/11/27 11:33:43;;;;;;;1.60;1.50;;;;;;;;;;5038382;28;20266;-85
2021/11/27 11:36:16;;;;;;;1.50;1.40;;;;;;;;;;5038972;28;20244;-85
2021/11/27 11:38:48;;;;;;;1.20;1.20;;;;;;;;;;5038444;28;20236;-85
2021/11/27 11:41:29;;;;;;;1.40;1.40;;;;;;;;;;5036974;28;20280;-86
2021/11/27 11:43:57;;;;;;;1.77;1.67;;;;;;;;;;5039702;28;20222;-84
2021/11/27 11:46:26;;;;;;;1.60;1.50;;;;;;;;;;5038834;28;20198;-84
2021/11/27 11:48:56;;;;;;;1.20;1.20;;;;;;;;;;5039674;28;20555;-85
2021/11/27 11:51:36;;;;;;;1.60;1.50;;;;;;;;;;5040004;28;20245;-85
2021/11/27 11:54:06;;;;;;;1.38;1.38;;;;;;;;;;5039956;28;20183;-85
2021/11/27 11:56:37;;;;;;;1.20;1.20;;;;;;;;;;5040163;28;20183;-84
2021/11/27 11:59:25;;;;;;;1.35;1.35;;;;;;;;;;5040135;28;20216;-84
2021/11/27 12:02:22;;;;;;;1.40;1.30;;;;;;;;;;5039743;28;20233;-84
2021/11/27 12:05:15;;;;;;;0.98;0.98;;;;;;;;;;5040020;28;20226;-84
2021/11/27 12:07:58;;;;;;;1.20;1.20;;;;;;;;;;5033943;28;20305;-84
2021/11/27 12:10:27;;;;;;;2.08;1.65;;;;;;;;;;5038818;28;20222;-84
2021/11/27 12:13:32;;;;;;;1.10;1.10;;;;;;;;;;5039916;28;20609;-84
2021/11/27 12:16:12;;;;;;;1.00;1.00;;;;;;;;;;5040347;28;20194;-85
2021/11/27 12:19:07;;;;;;;1.45;1.35;;;;;;;;;;5039872;28;20206;-84
2021/11/27 12:21:34;;;;;;;1.23;1.23;;;;;;;;;;5039313;28;20218;-83
2021/11/27 12:24:02;;;;;;;1.45;1.35;;;;;;;;;;5039389;28;20213;-84
2021/11/27 12:26:30;;;;;;;1.20;1.20;;;;;;;;;;5039490;28;20202;-85
2021/11/27 12:29:15;;;;;;;1.63;1.30;;;;;;;;;;5039810;28;20264;-84
2021/11/27 12:31:51;;;;;;;1.05;1.05;;;;;;;;;;5039383;28;20246;-84
2021/11/27 12:34:40;;;;;;;1.60;1.50;;;;;;;;;;5039337;28;20282;-83
2021/11/27 12:37:28;;;;;;;1.20;1.20;;;;;;;;;;5039241;28;20567;-83
2021/11/27 12:39:56;;;;;;;1.00;1.00;;;;;;;;;;5039754;28;20237;-83
2021/11/27 12:42:35;;;;;;;1.70;1.60;;;;;;;;;;5040568;28;20198;-83
2021/11/27 12:45:07;;;;;;;1.40;1.30;;;;;;;;;;5039491;28;20249;-83
2021/11/27 12:47:43;;;;;;;1.67;1.58;;;;;;;;;;5039941;28;20202;-83
2021/11/27 12:50:21;;;;;;;1.27;1.27;;;;;;;;;;5040401;28;20222;-83
2021/11/27 12:52:49;;;;;;;2.20;2.10;;;;;;;;;;5042666;28;20734;-82
2021/11/27 12:55:38;;;;;;;1.70;1.60;;;;;;;;;;5045938;28;20213;-82
2021/11/27 12:58:41;;;;;;;1.75;1.65;;;;;;;;;;5049693;28;20186;-82
2021/11/27 13:01:09;;;;;;;1.75;1.65;;;;;;;;;;5048930;28;20248;-82
2021/11/27 13:03:36;;;;;;;1.33;1.33;;;;;;;;;;5046266;28;20448;-83
2021/11/27 13:06:06;;;;;;;3.00;2.80;;;;;;;;;;5044553;28;20246;-82
2021/11/27 13:08:36;;;;;;;2.33;2.22;;;;;;;;;;5043161;28;20187;-82
2021/11/27 13:11:18;;;;;;;2.03;1.92;;;;;;;;;;5045092;28;20248;-82
2021/11/27 13:13:50;;;;;;;2.13;1.77;;;;;;;;;;5045184;28;20233;-81
2021/11/27 13:16:21;;;;;;;1.83;1.73;;;;;;;;;;5043256;28;20182;-82
2021/11/27 13:18:54;;;;;;;1.02;1.02;;;;;;;;;;5042406;28;20187;-82
2021/11/27 13:21:28;;;;;;;1.00;1.00;;;;;;;;;;5039110;28;20222;-82
2021/11/27 13:23:57;;;;;;;1.10;1.10;;;;;;;;;;5038811;28;20209;-81
2021/11/27 13:26:27;;;;;;;1.10;1.10;;;;;;;;;;5039487;28;20642;-82
2021/11/27 13:28:57;;;;;;;1.00;1.00;;;;;;;;;;5038313;28;20253;-83
2021/11/27 13:31:36;;;;;;;0.80;0.80;;;;;;;;;;5037399;28;20293;-80
2021/11/27 13:34:07;;;;;;;1.20;1.10;;;;;;;;;;5037606;28;20194;-82
2021/11/27 13:36:43;;;;;;;1.40;1.33;;;;;;;;;;5038087;28;20244;-81
2021/11/27 13:39:24;;;;;;;1.35;1.25;;;;;;;;;;5037409;28;20202;-81
2021/11/27 13:42:09;;;;;;;1.52;1.42;;;;;;;;;;5037469;28;20695;-82
2021/11/27 13:44:45;;;;;;;1.50;1.40;;;;;;;;;;5037556;28;20710;-81
2021/11/27 13:47:14;;;;;;;2.83;1.60;;;;;;;;;;5038459;28;20186;-81
2021/11/27 13:49:44;;;;;;;1.67;1.58;;;;;;;;;;5041392;28;20198;-82
2021/11/27 13:52:16;;;;;;;1.73;1.63;;;;;;;;;;5041306;28;20276;-82
2021/11/27 13:54:49;;;;;;;5.43;1.63;;;;;;;;;;5041639;28;20206;-82
2021/11/27 13:57:17;;;;;;;1.52;1.42;;;;;;;;;;5042253;28;20233;-83
2021/11/27 13:59:46;;;;;;;1.77;1.67;;;;;;;;;;5042295;28;20217;-82
2021/11/27 14:02:15;;;;;;;1.70;1.60;;;;;;;;;;5042157;28;20222;-81
2021/11/27 14:04:45;;;;;;;1.77;1.67;;;;;;;;;;5041862;28;20198;-82
2021/11/27 14:07:16;;;;;;;1.40;1.40;;;;;;;;;;5042452;28;20238;-82
2021/11/27 14:09:53;;;;;;;1.58;1.48;;;;;;;;;;5042232;28;20613;-80
2021/11/27 14:12:39;;;;;;;2.13;1.80;;;;;;;;;;5042785;28;20202;-82
2021/11/27 14:15:12;;;;;;;2.00;1.85;;;;;;;;;;5042864;28;20268;-82
2021/11/27 14:17:41;;;;;;;2.63;2.42;;;;;;;;;;5042616;28;20175;-82
2021/11/27 14:20:13;;;;;;;2.03;1.85;;;;;;;;;;5042195;28;20681;-82
2021/11/27 14:22:55;;;;;;;2.70;2.50;;;;;;;;;;5042047;28;20198;-83
2021/11/27 14:25:25;;;;;;;2.20;2.00;;;;;;;;;;5042913;28;20202;-82
2021/11/27 14:27:56;;;;;;;1.52;1.42;;;;;;;;;;5041754;28;20205;-82
2021/11/27 14:30:27;;;;;;;1.70;1.60;;;;;;;;;;5040101;28;20267;-82
2021/11/27 14:33:02;;;;;;;2.15;2.05;;;;;;;;;;5040572;28;20179;-81
2021/11/27 14:35:32;;;;;;;1.80;1.70;;;;;;;;;;5040328;28;20206;-82
2021/11/27 14:38:01;;;;;;;1.60;1.50;;;;;;;;;;5040443;28;20218;-82
2021/11/27 14:40:29;;;;;;;2.35;2.15;;;;;;;;;;5040034;28;20246;-81
2021/11/27 14:43:06;;;;;;;2.50;2.30;;;;;;;;;;5040017;28;20183;-82
2021/11/27 14:45:48;;;;;;;1.52;1.42;;;;;;;;;;5039966;28;20214;-82
2021/11/27 14:48:34;;;;;;;3.17;1.65;;;;;;;;;;5040437;28;20235;-82
2021/11/27 14:51:03;;;;;;;3.45;3.15;;;;;;;;;;5039574;28;20245;-83
2021/11/27 14:53:38;;;;;;;4.13;3.83;;;;;;;;;;5039663;28;20218;-83
2021/11/27 14:56:08;;;;;;;2.75;2.55;;;;;;;;;;5039534;28;20232;-83
2021/11/27 14:58:37;;;;;;;4.05;3.65;;;;;;;;;;5040785;28;20703;-82
2021/11/27 15:01:09;;;;;;;3.47;3.17;;;;;;;;;;5039882;28;20249;-81
2021/11/27 15:03:38;;;;;;;3.60;3.30;;;;;;;;;;5026067;28;20204;-81
2021/11/27 15:06:06;;;;;;;4.35;3.72;;;;;;;;;;5034434;28;20356;-82